Overview Statistics Trail Chart Weather Telemetry Raw packets
 

This is the latest recevied weather packets stored in our database for station/object W7TRD. If no packets are shown the sender has not sent any weather packets the latest 10 day(s).

<< 69 70 71 72 73 74 75 >>
Time Temp. Humidity Pressure Rain* Wind** Luminosity Snow
1788127952 21.67° C 51% 1019.2 hPa 0 mm - 604 W/m² -
1788127647 21.67° C 51% 1019.6 hPa 0 mm - 614 W/m² -
1788127345 21.67° C 54% 1019.4 hPa 0 mm - 635 W/m² -
1788127044 22.22° C 52% 1019.6 hPa 0 mm - 634 W/m² -
1788126739 21.67° C 53% 1019.7 hPa 0 mm - 639 W/m² -
1788126435 20.56° C 55% 1019.8 hPa 0 mm - 672 W/m² -
1788126135 21.11° C 54% 1019.9 hPa 0 mm - 582 W/m² -
1788125834 20.56° C 54% 1019.9 hPa 0 mm - 710 W/m² -
1788125529 20.56° C 55% 1019.9 hPa 0 mm - 374 W/m² -
1788125225 21.11° C 54% 1020.2 hPa 0 mm - 145 W/m² -
1788124921 21.11° C 52% 1020 hPa 0 mm - 730 W/m² -
1788124620 20.56° C 54% 1020.2 hPa 0 mm - 688 W/m² -
1788124319 21.67° C 52% 1020.1 hPa 0 mm - 772 W/m² -
1788124015 20.56° C 55% 1020.3 hPa 0 mm - 727 W/m² -
1788123714 20.56° C 55% 1020.2 hPa 0 mm - 318 W/m² -
1788123412 21.11° C 54% 1020.2 hPa 0 mm - 247 W/m² -
1788123107 21.11° C 53% 1020.5 hPa 0 mm - 782 W/m² -
1788122807 20.56° C 55% 1020.3 hPa 0 mm - 198 W/m² -
1788122505 21.11° C 53% 1020.6 hPa 0 mm - 833 W/m² -
1788122203 20° C 56% 1020.6 hPa 0 mm - 798 W/m² -
1788121903 20.56° C 55% 1020.6 hPa 0 mm - 752 W/m² -
1788121602 20° C 55% 1020.7 hPa 0 mm - 769 W/m² -
1788121298 20.56° C 56% 1020.8 hPa 0 mm - 785 W/m² -
1788120997 20.56° C 56% 1020.7 hPa 0 mm - 851 W/m² -
1788120693 20° C 56% 1021.1 hPa 0 mm - 810 W/m² -

* Rain latest hour (hover to see other rain measurements)
** Current wind speed in m/s (hover to see current wind gust speed)